createdAt,value
2023-03-05T00:01:35.468Z,100.00
2023-03-05T00:04:03.923Z,100.00
2023-03-05T00:06:31.718Z,100.00
2023-03-05T00:08:58.741Z,100.00
2023-03-05T00:11:30.071Z,100.00
2023-03-05T00:13:57.762Z,100.00
2023-03-05T00:16:26.881Z,100.00
2023-03-05T00:18:55.395Z,100.00
2023-03-05T00:21:28.080Z,100.00
2023-03-05T00:23:56.374Z,100.00
2023-03-05T00:26:26.647Z,100.00
2023-03-05T00:28:54.726Z,100.00
2023-03-05T00:31:24.468Z,100.00
2023-03-05T00:33:55.579Z,100.00
2023-03-05T00:36:22.785Z,100.00
2023-03-05T00:38:49.466Z,100.00
2023-03-05T00:41:16.317Z,100.00
2023-03-05T00:43:43.051Z,100.00
2023-03-05T00:46:09.857Z,100.00
2023-03-05T00:48:36.772Z,100.00
2023-03-05T00:51:03.802Z,100.00
2023-03-05T00:53:30.583Z,100.00
2023-03-05T00:55:57.145Z,100.00
2023-03-05T00:58:23.814Z,100.00
2023-03-05T01:00:50.826Z,100.00
2023-03-05T01:03:20.578Z,100.00
2023-03-05T01:05:47.196Z,100.00
2023-03-05T01:08:14.183Z,100.00
2023-03-05T01:10:40.770Z,100.00
2023-03-05T01:13:07.374Z,100.00
2023-03-05T01:15:33.955Z,100.00
2023-03-05T01:18:00.579Z,100.00
2023-03-05T01:20:27.298Z,100.00
2023-03-05T01:22:54.684Z,100.00
2023-03-05T01:25:21.303Z,100.00
2023-03-05T01:27:48.008Z,100.00
2023-03-05T01:30:15.915Z,100.00
2023-03-05T01:32:42.771Z,100.00
2023-03-05T01:35:15.456Z,100.00
2023-03-05T01:37:42.282Z,100.00
2023-03-05T01:40:11.158Z,100.00
2023-03-05T01:42:37.725Z,100.00
2023-03-05T01:45:10.094Z,100.00
2023-03-05T01:47:37.344Z,100.00
2023-03-05T01:50:07.358Z,100.00
2023-03-05T01:52:36.871Z,100.00
2023-03-05T01:55:11.999Z,100.00
2023-03-05T01:57:44.212Z,100.00
2023-03-05T02:00:18.846Z,100.00
2023-03-05T02:02:48.918Z,100.00
2023-03-05T02:05:20.662Z,100.00
2023-03-05T02:07:47.501Z,100.00
2023-03-05T02:10:26.846Z,100.00
2023-03-05T02:12:56.202Z,100.00
2023-03-05T02:15:23.129Z,100.00
2023-03-05T02:17:49.974Z,100.00
2023-03-05T02:20:23.383Z,100.00
2023-03-05T02:22:50.328Z,100.00
2023-03-05T02:25:23.679Z,100.00
2023-03-05T02:27:56.787Z,100.00
2023-03-05T02:30:23.482Z,100.00
2023-03-05T02:32:50.098Z,100.00
2023-03-05T02:35:16.834Z,100.00
2023-03-05T02:37:43.472Z,100.00
2023-03-05T02:40:11.404Z,100.00
2023-03-05T02:42:38.576Z,100.00
2023-03-05T02:45:06.174Z,100.00
2023-03-05T02:47:32.814Z,100.00
2023-03-05T02:49:59.993Z,100.00
2023-03-05T02:52:27.839Z,100.00
2023-03-05T02:54:54.400Z,100.00
2023-03-05T02:57:21.057Z,100.00
2023-03-05T02:59:47.675Z,100.00
2023-03-05T03:02:14.405Z,100.00
2023-03-05T03:04:41.341Z,100.00
2023-03-05T03:07:08.061Z,100.00
2023-03-05T03:09:35.997Z,100.00
2023-03-05T03:12:03.591Z,100.00
2023-03-05T03:14:39.014Z,100.00
2023-03-05T03:17:11.653Z,100.00
2023-03-05T03:19:39.034Z,100.00
2023-03-05T03:22:07.159Z,100.00
2023-03-05T03:24:35.491Z,100.00
2023-03-05T03:27:02.331Z,100.00
2023-03-05T03:29:29.099Z,100.00
2023-03-05T03:31:55.716Z,100.00
2023-03-05T03:34:22.577Z,100.00
2023-03-05T03:36:50.645Z,100.00
2023-03-05T03:39:17.925Z,100.00
2023-03-05T03:41:46.372Z,100.00
2023-03-05T03:44:13.682Z,100.00
2023-03-05T03:46:41.310Z,100.00
2023-03-05T03:49:10.655Z,100.00
2023-03-05T03:51:37.249Z,100.00
2023-03-05T03:54:03.856Z,100.00
2023-03-05T03:56:30.615Z,100.00
2023-03-05T03:58:57.257Z,100.00
2023-03-05T04:01:23.997Z,100.00
2023-03-05T04:03:50.610Z,100.00
2023-03-05T04:06:18.527Z,100.00
2023-03-05T04:08:45.144Z,100.00
2023-03-05T04:11:11.853Z,100.00
2023-03-05T04:13:38.464Z,100.00
2023-03-05T04:16:05.577Z,100.00
2023-03-05T04:18:32.659Z,100.00
2023-03-05T04:20:59.391Z,100.00
2023-03-05T04:23:26.149Z,100.00
2023-03-05T04:25:52.938Z,100.00
2023-03-05T04:28:19.652Z,100.00
2023-03-05T04:30:46.343Z,100.00
2023-03-05T04:33:12.946Z,100.00
2023-03-05T04:35:39.677Z,100.00
2023-03-05T04:38:06.576Z,100.00
2023-03-05T04:40:33.588Z,100.00
2023-03-05T04:43:00.220Z,100.00
2023-03-05T04:45:26.829Z,100.00
2023-03-05T04:47:53.489Z,100.00
2023-03-05T04:50:20.278Z,100.00
2023-03-05T04:52:47.132Z,100.00
2023-03-05T04:55:15.693Z,100.00
2023-03-05T04:57:43.142Z,100.00
2023-03-05T05:00:14.288Z,100.00
2023-03-05T05:02:45.791Z,100.00
2023-03-05T05:05:16.213Z,100.00
2023-03-05T05:07:43.089Z,100.00
2023-03-05T05:10:10.753Z,100.00
2023-03-05T05:12:38.045Z,100.00
2023-03-05T05:15:06.676Z,100.00
2023-03-05T05:17:34.147Z,100.00
2023-03-05T05:20:01.631Z,100.00
2023-03-05T05:22:29.230Z,100.00
2023-03-05T05:24:56.532Z,100.00
2023-03-05T05:27:23.564Z,100.00
2023-03-05T05:29:50.455Z,100.00
2023-03-05T05:32:22.450Z,100.00
2023-03-05T05:34:49.844Z,100.00
2023-03-05T05:37:16.445Z,100.00
2023-03-05T05:39:43.086Z,100.00
2023-03-05T05:42:09.773Z,100.00
2023-03-05T05:44:36.345Z,100.00
2023-03-05T05:47:03.038Z,100.00
2023-03-05T05:49:29.598Z,99.46
2023-03-05T05:51:57.089Z,98.38
2023-03-05T05:54:23.689Z,96.57
2023-03-05T05:56:50.484Z,92.66
2023-03-05T05:59:17.095Z,89.79
2023-03-05T06:01:43.861Z,90.29
2023-03-05T06:04:10.431Z,90.25
2023-03-05T06:06:37.084Z,89.82
2023-03-05T06:09:04.823Z,90.64
2023-03-05T06:11:32.730Z,90.83
2023-03-05T06:13:59.702Z,90.33
2023-03-05T06:16:26.511Z,90.61
2023-03-05T06:18:53.695Z,89.90
2023-03-05T06:21:22.471Z,91.59
2023-03-05T06:23:50.216Z,92.05
2023-03-05T06:26:20.117Z,90.98
2023-03-05T06:28:46.924Z,91.24
2023-03-05T06:31:18.368Z,90.85
2023-03-05T06:33:45.581Z,90.30
2023-03-05T06:36:15.570Z,90.64
2023-03-05T06:38:43.003Z,90.74
2023-03-05T06:41:14.735Z,90.29
2023-03-05T06:43:44.079Z,90.34
2023-03-05T06:46:23.088Z,90.53
2023-03-05T06:48:50.971Z,88.69
2023-03-05T06:51:24.821Z,88.16
2023-03-05T06:53:53.050Z,85.84
2023-03-05T06:56:20.719Z,84.57
2023-03-05T06:58:51.447Z,84.02
2023-03-05T07:01:19.180Z,83.18
2023-03-05T07:03:49.583Z,80.55
2023-03-05T07:06:16.602Z,78.32
2023-03-05T07:08:44.957Z,76.75
2023-03-05T07:11:13.884Z,74.63
2023-03-05T07:13:40.868Z,70.46
2023-03-05T07:16:09.705Z,69.60
2023-03-05T07:18:36.696Z,70.09
2023-03-05T07:21:08.266Z,67.60
2023-03-05T07:23:36.095Z,67.16
2023-03-05T07:26:06.712Z,66.11
2023-03-05T07:28:34.440Z,66.83
2023-03-05T07:31:04.223Z,66.59
2023-03-05T07:33:32.140Z,64.86
2023-03-05T07:35:58.844Z,64.58
2023-03-05T07:38:25.484Z,63.79
2023-03-05T07:40:52.008Z,64.16
2023-03-05T07:43:19.283Z,62.43
2023-03-05T07:45:46.657Z,61.34
2023-03-05T07:48:16.706Z,62.22
2023-03-05T07:50:43.846Z,62.63
2023-03-05T07:53:10.513Z,64.17
2023-03-05T07:55:43.231Z,63.13
2023-03-05T07:58:10.546Z,64.24
2023-03-05T08:00:37.487Z,64.26
2023-03-05T08:03:04.374Z,65.03
2023-03-05T08:05:31.031Z,65.33
2023-03-05T08:07:57.757Z,64.92
2023-03-05T08:10:24.410Z,67.08
2023-03-05T08:12:51.026Z,66.78
2023-03-05T08:15:17.892Z,65.33
2023-03-05T08:17:44.496Z,64.52
2023-03-05T08:20:11.911Z,67.90
2023-03-05T08:22:38.912Z,68.47
2023-03-05T08:25:06.378Z,69.39
2023-03-05T08:27:33.420Z,70.05
2023-03-05T08:30:02.476Z,70.53
2023-03-05T08:32:29.536Z,70.19
2023-03-05T08:35:00.259Z,70.10
2023-03-05T08:37:26.835Z,70.09
2023-03-05T08:39:53.448Z,69.73
2023-03-05T08:42:20.021Z,68.37
2023-03-05T08:44:46.653Z,68.71
2023-03-05T08:47:13.452Z,66.86
2023-03-05T08:49:40.151Z,65.60
2023-03-05T08:52:06.762Z,65.67
2023-03-05T08:54:34.418Z,67.23
2023-03-05T08:57:01.560Z,66.17
2023-03-05T08:59:28.138Z,66.80
2023-03-05T09:01:55.094Z,66.32
2023-03-05T09:04:21.690Z,67.11
2023-03-05T09:06:48.378Z,66.49
2023-03-05T09:09:15.176Z,65.52
2023-03-05T09:11:41.724Z,64.57
2023-03-05T09:14:08.380Z,64.12
2023-03-05T09:16:36.323Z,63.51
2023-03-05T09:19:02.987Z,64.05
2023-03-05T09:21:29.593Z,63.23
2023-03-05T09:23:59.664Z,62.80
2023-03-05T09:26:26.661Z,63.07
2023-03-05T09:28:53.339Z,62.84
2023-03-05T09:31:20.119Z,62.16
2023-03-05T09:33:48.633Z,60.71
2023-03-05T09:36:24.262Z,61.39
2023-03-05T09:38:51.501Z,61.43
2023-03-05T09:41:25.276Z,61.02
2023-03-05T09:44:04.063Z,61.65
2023-03-05T09:46:33.458Z,62.42
2023-03-05T09:49:21.371Z,61.77
2023-03-05T09:51:55.717Z,61.87
2023-03-05T09:54:37.806Z,60.86
2023-03-05T09:57:10.774Z,60.69
2023-03-05T09:59:47.452Z,60.98
2023-03-05T10:02:36.918Z,61.28
2023-03-05T10:05:20.903Z,61.13
2023-03-05T10:08:16.270Z,61.99
2023-03-05T10:10:52.991Z,61.27
2023-03-05T10:13:22.435Z,61.11
2023-03-05T10:16:34.771Z,61.11
2023-03-05T10:19:19.025Z,61.65
2023-03-05T10:22:14.886Z,61.53
2023-03-05T10:25:14.008Z,61.58
2023-03-05T10:27:54.207Z,61.78
2023-03-05T10:30:26.830Z,61.38
2023-03-05T10:33:16.535Z,60.36
2023-03-05T10:36:06.502Z,59.64
2023-03-05T10:38:42.241Z,58.76
2023-03-05T10:41:22.114Z,59.46
2023-03-05T10:44:06.044Z,59.00
2023-03-05T10:46:36.455Z,59.64
2023-03-05T10:49:15.809Z,59.49
2023-03-05T10:51:59.750Z,59.32
2023-03-05T10:54:31.540Z,59.09
2023-03-05T10:57:21.316Z,59.72
2023-03-05T11:00:14.482Z,58.85
2023-03-05T11:02:56.305Z,59.39
2023-03-05T11:06:02.407Z,60.79
2023-03-05T11:08:34.691Z,61.87
2023-03-05T11:11:10.230Z,61.27
2023-03-05T11:13:44.174Z,61.06
2023-03-05T11:16:20.933Z,61.65
2023-03-05T11:18:47.963Z,60.89
2023-03-05T11:21:27.811Z,60.94
2023-03-05T11:24:14.869Z,61.63
2023-03-05T11:26:53.384Z,60.85
2023-03-05T11:29:27.891Z,60.86
2023-03-05T11:31:54.620Z,61.42
2023-03-05T11:34:26.072Z,61.50
2023-03-05T11:36:58.636Z,60.97
2023-03-05T11:39:26.369Z,61.03
2023-03-05T11:42:17.269Z,61.26
2023-03-05T11:44:48.726Z,61.11
2023-03-05T11:47:24.377Z,61.60
2023-03-05T11:49:57.684Z,60.75
2023-03-05T11:52:32.346Z,61.20
2023-03-05T11:55:25.967Z,61.59
2023-03-05T11:58:08.134Z,61.57
2023-03-05T12:00:37.051Z,61.91
2023-03-05T12:03:11.600Z,61.61
2023-03-05T12:05:41.985Z,62.51
2023-03-05T12:08:15.475Z,63.10
2023-03-05T12:10:42.014Z,63.50
2023-03-05T12:13:22.222Z,63.89
2023-03-05T12:16:36.669Z,63.50
2023-03-05T12:19:18.105Z,63.77
2023-03-05T12:21:50.301Z,64.67
2023-03-05T12:24:28.366Z,64.86
2023-03-05T12:27:04.398Z,65.42
2023-03-05T12:29:41.443Z,64.77
2023-03-05T12:32:23.253Z,64.43
2023-03-05T12:35:06.282Z,63.33
2023-03-05T12:37:32.777Z,63.58
2023-03-05T12:40:01.141Z,63.48
2023-03-05T12:42:31.580Z,63.64
2023-03-05T12:45:10.089Z,63.31
2023-03-05T12:47:40.225Z,63.44
2023-03-05T12:50:28.823Z,63.45
2023-03-05T12:52:58.075Z,63.20
2023-03-05T12:55:51.195Z,63.32
2023-03-05T12:58:42.834Z,63.08
2023-03-05T13:01:16.361Z,62.52
2023-03-05T13:03:53.090Z,61.90
2023-03-05T13:06:45.939Z,61.88
2023-03-05T13:09:24.065Z,62.96
2023-03-05T13:11:53.926Z,62.94
2023-03-05T13:14:41.682Z,62.92
2023-03-05T13:17:30.288Z,63.53
2023-03-05T13:19:58.751Z,63.30
2023-03-05T13:22:25.689Z,63.50
2023-03-05T13:25:24.892Z,62.62
2023-03-05T13:27:51.911Z,62.56
2023-03-05T13:30:22.494Z,63.49
2023-03-05T13:32:52.295Z,63.43
2023-03-05T13:35:20.906Z,62.62
2023-03-05T13:37:48.703Z,63.23
2023-03-05T13:40:22.632Z,62.64
2023-03-05T13:42:49.568Z,62.60
2023-03-05T13:45:22.018Z,62.24
2023-03-05T13:47:54.886Z,62.07
2023-03-05T13:50:31.939Z,62.34
2023-03-05T13:53:29.780Z,62.87
2023-03-05T13:56:07.757Z,62.80
2023-03-05T13:58:49.539Z,63.35
2023-03-05T14:01:32.207Z,63.04
2023-03-05T14:04:02.927Z,63.21
2023-03-05T14:06:31.060Z,62.76
2023-03-05T14:09:08.755Z,62.82
2023-03-05T14:11:36.026Z,62.69
2023-03-05T14:14:08.155Z,62.68
2023-03-05T14:16:34.820Z,62.61
2023-03-05T14:19:07.309Z,62.92
2023-03-05T14:21:49.146Z,63.38
2023-03-05T14:24:23.371Z,63.79
2023-03-05T14:26:52.974Z,63.51
2023-03-05T14:29:23.661Z,63.38
2023-03-05T14:31:54.798Z,63.26
2023-03-05T14:34:50.913Z,63.68
2023-03-05T14:37:29.245Z,63.73
2023-03-05T14:39:59.585Z,63.91
2023-03-05T14:42:38.414Z,63.73
2023-03-05T14:45:18.453Z,63.26
2023-03-05T14:47:45.426Z,63.28
2023-03-05T14:50:21.206Z,63.28
2023-03-05T14:52:51.287Z,62.99
2023-03-05T14:55:20.307Z,63.26
2023-03-05T14:57:48.039Z,63.09
2023-03-05T15:00:23.284Z,63.28
2023-03-05T15:02:49.878Z,63.39
2023-03-05T15:05:17.628Z,63.36
2023-03-05T15:07:45.523Z,63.72
2023-03-05T15:10:15.740Z,63.73
2023-03-05T15:12:42.536Z,63.41
2023-03-05T15:15:11.642Z,63.64
2023-03-05T15:17:43.145Z,64.17
2023-03-05T15:20:16.096Z,64.32
2023-03-05T15:22:42.716Z,64.43
2023-03-05T15:25:11.696Z,64.81
2023-03-05T15:27:40.205Z,65.09
2023-03-05T15:30:08.901Z,65.09
2023-03-05T15:32:35.521Z,65.44
2023-03-05T15:35:02.104Z,65.48
2023-03-05T15:37:28.712Z,64.30
2023-03-05T15:39:55.187Z,64.87
2023-03-05T15:42:21.808Z,64.82
2023-03-05T15:44:48.438Z,64.74
2023-03-05T15:47:15.070Z,64.85
2023-03-05T15:49:41.722Z,64.76
2023-03-05T15:52:08.287Z,64.71
2023-03-05T15:54:36.132Z,64.58
2023-03-05T15:57:02.769Z,65.47
2023-03-05T15:59:29.401Z,65.75
2023-03-05T16:01:56.056Z,65.98
2023-03-05T16:04:22.672Z,66.31
2023-03-05T16:06:50.439Z,66.92
2023-03-05T16:09:19.877Z,67.07
2023-03-05T16:11:48.184Z,67.47
2023-03-05T16:14:21.531Z,68.44
2023-03-05T16:16:48.661Z,68.45
2023-03-05T16:19:18.362Z,68.25
2023-03-05T16:21:45.458Z,68.63
2023-03-05T16:24:12.333Z,68.28
2023-03-05T16:26:40.597Z,68.65
2023-03-05T16:29:07.363Z,69.08
2023-03-05T16:31:35.701Z,69.62
2023-03-05T16:34:02.341Z,70.72
2023-03-05T16:36:30.791Z,71.34
2023-03-05T16:39:00.419Z,72.28
2023-03-05T16:41:27.697Z,73.00
2023-03-05T16:43:56.494Z,74.13
2023-03-05T16:46:25.545Z,74.25
2023-03-05T16:48:52.444Z,75.18
2023-03-05T16:51:20.802Z,76.07
2023-03-05T16:53:47.534Z,76.68
2023-03-05T16:56:14.729Z,77.04
2023-03-05T16:58:41.658Z,77.96
2023-03-05T17:01:13.959Z,78.19
2023-03-05T17:03:41.673Z,78.11
2023-03-05T17:06:14.249Z,78.17
2023-03-05T17:08:43.031Z,78.98
2023-03-05T17:11:10.102Z,79.28
2023-03-05T17:13:37.646Z,79.19
2023-03-05T17:16:05.665Z,79.41
2023-03-05T17:18:32.943Z,79.39
2023-03-05T17:21:01.779Z,79.33
2023-03-05T17:23:28.453Z,80.01
2023-03-05T17:25:55.510Z,80.08
2023-03-05T17:28:22.266Z,79.86
2023-03-05T17:30:48.769Z,79.73
2023-03-05T17:33:15.408Z,79.39
2023-03-05T17:35:47.319Z,79.91
2023-03-05T17:38:14.715Z,80.33
2023-03-05T17:40:41.895Z,80.72
2023-03-05T17:43:08.812Z,80.79
2023-03-05T17:45:35.610Z,79.78
2023-03-05T17:48:02.324Z,79.89
2023-03-05T17:50:29.009Z,79.64
2023-03-05T17:52:55.550Z,79.93
2023-03-05T17:55:24.755Z,80.29
2023-03-05T17:57:51.878Z,80.29
2023-03-05T18:00:22.002Z,79.98
2023-03-05T18:02:49.632Z,80.33
2023-03-05T18:05:17.343Z,80.27
2023-03-05T18:07:43.929Z,80.49
2023-03-05T18:10:11.659Z,80.05
2023-03-05T18:12:39.128Z,81.05
2023-03-05T18:15:09.095Z,80.91
2023-03-05T18:17:54.758Z,81.63
2023-03-05T18:20:26.874Z,81.78
2023-03-05T18:22:54.103Z,81.90
2023-03-05T18:25:22.000Z,81.92
2023-03-05T18:27:48.617Z,82.38
2023-03-05T18:30:15.339Z,82.71
2023-03-05T18:32:41.946Z,82.96
2023-03-05T18:35:09.897Z,82.78
2023-03-05T18:37:38.398Z,82.03
2023-03-05T18:40:09.579Z,82.62
2023-03-05T18:42:37.128Z,82.33
2023-03-05T18:45:05.400Z,82.04
2023-03-05T18:47:33.328Z,82.48
2023-03-05T18:49:59.930Z,82.49
2023-03-05T18:52:26.701Z,82.48
2023-03-05T18:54:53.489Z,82.84
2023-03-05T18:57:20.284Z,82.71
2023-03-05T18:59:46.904Z,82.20
2023-03-05T19:02:18.073Z,82.59
2023-03-05T19:04:44.761Z,83.80
2023-03-05T19:07:11.386Z,82.97
2023-03-05T19:10:02.487Z,83.08
2023-03-05T19:12:35.233Z,83.14
2023-03-05T19:15:03.239Z,83.28
2023-03-05T19:17:31.844Z,84.24
2023-03-05T19:19:59.794Z,84.29
2023-03-05T19:22:26.992Z,84.66
2023-03-05T19:24:54.269Z,84.41
2023-03-05T19:27:21.035Z,83.68
2023-03-05T19:29:47.718Z,83.82
2023-03-05T19:32:17.576Z,83.71
2023-03-05T19:34:45.173Z,83.68
2023-03-05T19:37:12.518Z,83.32
2023-03-05T19:39:39.359Z,83.53
2023-03-05T19:42:06.480Z,83.38
2023-03-05T19:44:33.662Z,83.55
2023-03-05T19:47:00.324Z,83.81
2023-03-05T19:49:27.209Z,83.14
2023-03-05T19:51:53.733Z,82.62
2023-03-05T19:54:21.802Z,82.07
2023-03-05T19:56:49.616Z,82.94
2023-03-05T19:59:18.462Z,83.95
2023-03-05T20:01:46.351Z,82.57
2023-03-05T20:04:15.712Z,81.31
2023-03-05T20:06:42.622Z,81.89
2023-03-05T20:09:09.810Z,82.84
2023-03-05T20:11:37.182Z,82.74
2023-03-05T20:14:04.380Z,83.47
2023-03-05T20:16:35.324Z,84.26
2023-03-05T20:19:03.505Z,83.74
2023-03-05T20:21:37.425Z,83.34
2023-03-05T20:24:09.443Z,84.00
2023-03-05T20:26:38.330Z,84.46
2023-03-05T20:31:50.249Z,86.04
2023-03-05T20:34:18.982Z,87.11
2023-03-05T20:36:46.546Z,87.70
2023-03-05T20:39:13.136Z,88.15
2023-03-05T20:41:39.983Z,88.29
2023-03-05T20:44:07.357Z,88.66
2023-03-05T20:46:36.734Z,89.59
2023-03-05T20:49:04.818Z,89.69
2023-03-05T20:51:36.113Z,90.29
2023-03-05T20:54:06.174Z,90.28
2023-03-05T20:56:34.944Z,91.49
2023-03-05T20:59:04.883Z,91.98
2023-03-05T21:01:33.220Z,92.09
2023-03-05T21:04:03.045Z,92.51
2023-03-05T21:06:31.173Z,92.70
2023-03-05T21:08:58.210Z,92.14
2023-03-05T21:11:24.930Z,92.07
2023-03-05T21:13:51.482Z,91.71
2023-03-05T21:16:20.846Z,91.27
2023-03-05T21:18:48.017Z,91.95
2023-03-05T21:21:14.735Z,91.99
2023-03-05T21:23:41.404Z,91.91
2023-03-05T21:26:08.189Z,92.90
2023-03-05T21:28:34.818Z,91.82
2023-03-05T21:31:08.962Z,91.88
2023-03-05T21:33:36.146Z,91.54
2023-03-05T21:36:02.864Z,91.74
2023-03-05T21:38:30.995Z,91.18
2023-03-05T21:40:58.869Z,91.03
2023-03-05T21:43:26.644Z,90.01
2023-03-05T21:45:54.969Z,90.14
2023-03-05T21:48:22.457Z,89.90
2023-03-05T21:50:49.910Z,90.13
2023-03-05T21:53:19.952Z,90.19
2023-03-05T21:56:31.029Z,90.40
2023-03-05T21:58:58.019Z,89.95
2023-03-05T22:01:24.840Z,91.09
2023-03-05T22:03:51.741Z,91.04
2023-03-05T22:06:19.880Z,91.17
2023-03-05T22:08:47.226Z,91.35
2023-03-05T22:11:16.607Z,91.39
2023-03-05T22:13:44.033Z,91.08
2023-03-05T22:16:11.387Z,90.98
2023-03-05T22:18:38.235Z,91.51
2023-03-05T22:21:05.200Z,91.70
2023-03-05T22:23:36.834Z,91.14
2023-03-05T22:26:07.033Z,91.65
2023-03-05T22:28:34.987Z,91.17
2023-03-05T22:31:01.666Z,91.57
2023-03-05T22:33:28.965Z,91.79
2023-03-05T22:35:55.633Z,91.99
2023-03-05T22:38:23.068Z,92.09
2023-03-05T22:40:51.297Z,92.78
2023-03-05T22:43:18.673Z,92.20
2023-03-05T22:45:45.817Z,92.78
2023-03-05T22:48:12.779Z,92.95
2023-03-05T22:50:41.500Z,92.72
2023-03-05T22:53:08.545Z,93.41
2023-03-05T22:55:39.250Z,93.50
2023-03-05T22:58:05.883Z,93.44
2023-03-05T23:00:33.293Z,93.44
2023-03-05T23:03:00.009Z,93.78
2023-03-05T23:05:26.744Z,93.69
2023-03-05T23:07:53.379Z,94.05
2023-03-05T23:10:27.026Z,94.24
2023-03-05T23:12:55.318Z,93.68
2023-03-05T23:15:34.913Z,93.94
2023-03-05T23:18:02.430Z,94.05
2023-03-05T23:20:32.707Z,94.04
2023-03-05T23:22:59.870Z,93.34
2023-03-05T23:25:29.831Z,93.20
2023-03-05T23:27:58.167Z,94.02
2023-03-05T23:30:29.800Z,94.05
2023-03-05T23:32:57.934Z,94.12
2023-03-05T23:35:26.074Z,93.99
2023-03-05T23:37:55.662Z,94.40
2023-03-05T23:40:25.210Z,94.54
2023-03-05T23:42:52.937Z,94.63
2023-03-05T23:45:21.074Z,93.93
2023-03-05T23:47:48.494Z,95.34
2023-03-05T23:50:19.554Z,96.40
2023-03-05T23:52:46.589Z,96.13
2023-03-05T23:55:16.620Z,96.15
2023-03-05T23:57:44.125Z,95.88
